• Join FlightAware (Why Join?)
  • Login
  • US Flag 
07:00AM EDT


 

Airport Tracker/Info


-or-


 

Live Flight TrackerFlight Track Log ✈ AAL1459 ✈ 19-May-2013 ✈ KORD - KRNO

Flight Track Log - Related Links

Times and Time Zones

All times are in EDT time to prevent confusion due to time zone crossing. See the AAL1459 flight status page for this flight to view local times or setup timezone preferences in your user account.

Time Position Orientation Groundspeed Altitude Reporting Facility
EDT Latitude Longitude Course Direction KTS MPH feet Rate Location/Type
06:24PM 41.9440 -87.9110 200° South 173 199 1,600  Level FlightAware
06:24PM 41.9360 -87.9220 226° Southwest 174 200 2,300 2,100 Climbing FlightAware
06:24PM 41.9210 -87.9430 226° Southwest 194 223 3,000 1,800 Climbing FlightAware
06:25PM 41.9010 -87.9710 226° Southwest 219 252 4,000 2,100 Climbing FlightAware
06:25PM 41.8890 -87.9880 227° Southwest 232 267 4,600 2,220 Climbing FlightAware
06:26PM 41.8710 -88.0160 229° Southwest 254 292 5,500 2,220 Climbing FlightAware
06:26PM 41.8660 -88.0380 253° West 266 306 6,100 2,400 Climbing FlightAware
06:26PM 41.8650 -88.0450 259° West 268 308 6,300 3,600 Climbing FlightAware
06:26PM 41.8740 -88.0890 285° West 268 308 7,900 3,360 Climbing FlightAware
06:27PM 41.8850 -88.1260 292° West 270 311 9,100 2,820 Climbing FlightAware
06:27PM 41.9060 -88.1990 291° West 278 320 11,200 2,400 Climbing FlightAware
06:28PM 41.9250 -88.2620 292° West 302 348 12,500 1,980 Climbing FlightAware
06:29PM 41.9460 -88.3380 290° West 327 376 13,900 2,280 Climbing FlightAware
06:30PM 41.9700 -88.4250 290° West 340 391 15,800 2,580 Climbing FlightAware
06:30PM 41.9940 -88.5070 292° West 345 397 17,600 2,220 Climbing FlightAware
06:31PM 42.0150 -88.6000 287° West 361 415 19,000 1,920 Climbing FlightAware
06:32PM 42.0210 -88.6900 275° West 371 427 20,400 2,040 Climbing FlightAware
06:32PM 42.0290 -88.7940 276° West 382 440 21,900 1,860 Climbing FlightAware
06:33PM 42.0370 -88.8930 276° West 392 451 23,100 1,860 Climbing FlightAware
06:34PM 42.0440 -88.9860 276° West 395 455 24,400 1,860 Climbing FlightAware
06:34PM 42.0530 -89.0990 276° West 399 459 25,800 1,680 Climbing FlightAware
06:35PM 42.0610 -89.1980 276° West 405 466 26,800 1,380 Climbing FlightAware
06:36PM 42.0710 -89.3100 277° West 414 476 27,800 1,260 Climbing FlightAware
06:37PM 42.0810 -89.4180 277° West 423 487 28,600 1,020 Climbing FlightAware
06:37PM 42.0900 -89.5240 277° West 435 501 29,200 900 Climbing FlightAware
06:38PM 42.1010 -89.6430 277° West 446 513 29,900 900 Climbing FlightAware
06:39PM 42.1100 -89.7560 276° West 456 525 30,500 900 Climbing FlightAware
06:40PM 42.1110 -89.9260 271° West 466 536 31,400 1,020 Climbing FlightAware
06:40PM 42.1050 -90.0420 266° West 468 539 32,200 1,080 Climbing FlightAware
06:41PM 42.0990 -90.1690 266° West 467 537 33,000 1,200 Climbing FlightAware
06:42PM 42.0940 -90.2710 266° West 465 535 33,800 1,560 Climbing FlightAware
06:42PM 42.0890 -90.4020 267° West 454 522 35,100 1,440 Climbing FlightAware
06:43PM 42.0990 -90.5270 276° West 446 513 36,000 600 Climbing FlightAware
06:44PM 42.1190 -90.6350 284° West 447 514 36,000  Level FlightAware
06:45PM 42.1410 -90.7540 284° West 446 513 36,000  Level FlightAware
06:45PM 42.1610 -90.8640 284° West 446 513 36,000  Level FlightAware
06:46PM 42.1810 -90.9680 285° West 445 512 36,000  Level FlightAware
06:47PM 42.2020 -91.0760 285° West 445 512 36,000  Level FlightAware
06:47PM 42.2250 -91.1980 284° West 443 510 36,000  Level FlightAware
06:48PM 42.2470 -91.3170 284° West 443 510 36,000  Level FlightAware
06:49PM 42.2600 -91.3890 284° West 444 511 36,000  Level FlightAware
06:49PM 42.2870 -91.5320 284° West 447 514 36,000  Level FlightAware
06:50PM 42.3070 -91.6420 284° West 448 516 36,000  Level FlightAware
06:51PM 42.3290 -91.7640 284° West 451 519 36,000  Level FlightAware
06:51PM 42.3490 -91.8720 284° West 454 522 36,000  Level FlightAware
06:52PM 42.3720 -91.9970 284° West 456 525 36,000  Level FlightAware
06:53PM 42.3940 -92.1090 285° West 461 531 36,000  Level FlightAware
06:54PM 42.4350 -92.2280 295° West 474 545 36,000  Level FlightAware
06:54PM 42.4780 -92.3310 300° West 479 551 36,000  Level FlightAware
06:55PM 42.5330 -92.4480 303° West 482 555 36,000  Level FlightAware
06:56PM 42.5800 -92.5480 303° West 480 552 36,000  Level FlightAware
06:56PM 42.6280 -92.6500 303° West 480 552 36,000  Level FlightAware
06:57PM 42.6750 -92.7670 299° West 478 550 36,000  Level FlightAware
06:58PM 42.7160 -92.8710 298° West 479 551 36,000  Level FlightAware
06:58PM 42.7590 -92.9790 298° West 480 552 36,000  Level FlightAware
06:59PM 42.8070 -93.0990 299° West 481 554 36,000  Level FlightAware
07:00PM 42.8500 -93.2040 299° West 482 555 36,000  Level FlightAware
07:01PM 42.8980 -93.3220 299° West 485 558 36,000  Level FlightAware
07:01PM 42.9420 -93.4290 299° West 487 560 36,000  Level FlightAware
07:02PM 42.9930 -93.5540 299° West 490 564 36,000  Level FlightAware
07:03PM 43.0370 -93.6590 300° West 492 566 36,000  Level FlightAware
07:03PM 43.0830 -93.7690 300° West 493 567 36,000  Level FlightAware
07:04PM 43.1320 -93.8730 303° West 498 573 36,000  Level FlightAware
07:05PM 43.1910 -93.9880 305° West 498 573 36,000  Level FlightAware
07:06PM 43.2510 -94.1040 305° West 500 575 36,000  Level FlightAware
07:06PM 43.3040 -94.2080 305° West 501 577 36,000  Level FlightAware
07:07PM 43.3590 -94.3130 306° West 502 578 36,000  Level FlightAware
07:08PM 43.4180 -94.4260 306° West 502 578 36,000  Level FlightAware
07:08PM 43.4730 -94.5300 306° West 503 579 36,000  Level FlightAware
07:09PM 43.5270 -94.6530 301° West 492 566 36,000  Level FlightAware
07:10PM 43.5690 -94.7680 297° West 489 563 36,000  Level FlightAware
07:10PM 43.6110 -94.8870 296° West 477 549 36,000  Level FlightAware
07:11PM 43.6470 -94.9990 294° West 471 542 36,000  Level FlightAware
07:12PM 43.6800 -95.1080 293° West 472 543 36,000  Level FlightAware
07:13PM 43.7190 -95.2370 293° West 471 542 36,000  Level FlightAware
07:13PM 43.7520 -95.3440 293° West 471 542 36,000  Level FlightAware
07:14PM 43.7920 -95.4700 294° West 471 542 36,000  Level FlightAware
07:15PM 43.8230 -95.5680 294° West 470 541 36,000  Level FlightAware
07:15PM 43.8590 -95.6880 293° West 468 539 36,000  Level FlightAware
07:16PM 43.8950 -95.8170 291° West 464 534 36,000  Level FlightAware
07:17PM 43.9190 -95.9280 287° West 460 529 36,000  Level FlightAware
07:17PM 43.9470 -96.0550 287° West 460 529 36,000  Level FlightAware
07:18PM 43.9680 -96.1650 285° West 458 527 36,000  Level FlightAware
07:19PM 43.9880 -96.2790 284° West 459 528 36,000  Level FlightAware
07:20PM 44.0100 -96.4140 283° West 458 527 36,000  Level FlightAware
07:20PM 44.0230 -96.5020 282° West 455 524 36,000  Level FlightAware
07:21PM 44.0320 -96.6530 275° West 444 511 36,000  Level FlightAware
07:22PM 44.0380 -96.7990 273° West 444 511 36,000  Level FlightAware
07:23PM 44.0430 -96.9220 273° West 442 509 36,000  Level FlightAware
07:23PM 44.0470 -97.0510 273° West 448 516 36,000  Level FlightAware
07:24PM 44.0510 -97.1640 273° West 448 516 36,000  Level FlightAware
07:25PM 44.0550 -97.2810 273° West 450 518 36,000  Level FlightAware
07:26PM 44.0600 -97.4360 273° West 451 519 36,000  Level FlightAware
07:26PM 44.0650 -97.5670 273° West 452 520 36,000  Level FlightAware
07:27PM 44.0670 -97.6640 272° West 451 519 36,000  Level FlightAware
07:28PM 44.0720 -97.8110 273° West 450 518 36,000  Level FlightAware
07:28PM 44.0750 -97.9360 272° West 452 520 36,000  Level FlightAware
07:29PM 44.0790 -98.0640 273° West 455 524 36,000  Level FlightAware
07:30PM 44.0830 -98.2110 272° West 456 525 36,000  Level FlightAware
07:31PM 44.0850 -98.3100 272° West 456 525 36,000  Level FlightAware
07:31PM 44.0880 -98.4100 272° West 456 525 36,000  Level FlightAware
07:32PM 44.0900 -98.5100 272° West 456 525 36,000  Level FlightAware
07:33PM 44.0930 -98.6100 272° West 456 525 36,000  Level FlightAware
07:33PM 44.0950 -98.7100 272° West 456 525 36,000  Level FlightAware
07:34PM 44.0980 -98.8340 272° West 456 525 36,000  Level FlightAware
07:35PM 44.1010 -98.9340 272° West 456 525 36,000  Level FlightAware
07:36PM 44.1030 -99.0340 272° West 456 525 36,000  Level FlightAware
07:36PM 44.1060 -99.1340 272° West 456 525 36,000  Level FlightAware
07:37PM 44.1090 -99.2590 272° West 456 525 36,000  Level FlightAware
07:38PM 44.1110 -99.3590 272° West 456 525 36,000  Level FlightAware
07:38PM 44.1140 -99.4580 272° West 456 525 36,000  Level FlightAware
07:39PM 44.1160 -99.5580 272° West 456 525 36,000  Level FlightAware
07:40PM 44.1144 -99.9333 272° West 459 528 36,000  Level Denver Center
07:40PM 44.1150 -100.0064 271° West 457 526 36,000  Level Minneapolis Center
07:41PM 44.1158 -100.1839 270° West 458 527 36,000  Level Minneapolis Center
07:42PM 44.1169 -100.3619 271° West 459 528 36,000  Level Minneapolis Center
07:43PM 44.1178 -100.5397 270° West 459 528 36,000  Level Minneapolis Center
07:44PM 44.1186 -100.7183 270° West 460 529 36,000  Level Minneapolis Center
07:45PM 44.1192 -100.8978 270° West 462 532 36,000  Level Minneapolis Center
07:46PM 44.1192 -101.1128 270° West 462 532 36,000  Level Minneapolis Center
07:47PM 44.1183 -101.2922 270° West 462 532 36,000  Level Minneapolis Center
07:48PM 44.1169 -101.3964 269° West 459 528 36,000  Level Denver Center
07:49PM 44.1167 -101.5725 270° West 457 526 36,000  Level Denver Center
07:50PM 44.1156 -101.7472 270° West 453 521 36,000  Level Denver Center
07:51PM 44.1142 -101.9228 269° West 453 521 36,000  Level Denver Center
07:52PM 44.1150 -102.1003 270° West 457 526 36,000  Level Denver Center
07:53PM 44.1139 -102.2744 270° West 452 520 36,000  Level Denver Center
07:54PM 44.1139 -102.4506 270° West 453 521 36,000  Level Denver Center
07:55PM 44.1125 -102.6267 269° West 456 525 36,000  Level Denver Center
07:56PM 44.1100 -102.8319 269° West 457 526 36,000  Level Denver Center
07:57PM 44.1081 -102.9986 269° West 454 522 36,000  Level Denver Center
07:58PM 44.1036 -103.1950 268° West 455 524 36,000  Level Denver Center
07:59PM 44.1000 -103.3633 268° West 457 526 36,000  Level Denver Center
08:00PM 44.0961 -103.5300 268° West 454 522 36,000  Level Denver Center
08:01PM 44.0936 -103.7258 269° West 455 524 36,000  Level Denver Center
08:02PM 44.0889 -103.8936 268° West 455 524 36,000  Level Denver Center
08:03PM 44.0844 -104.0875 268° West 452 520 36,000  Level Denver Center
08:04PM 44.0794 -104.2536 268° West 451 519 36,000  Level Denver Center
08:05PM 44.0750 -104.4467 268° West 450 518 36,000  Level Denver Center
08:06PM 44.0700 -104.6125 268° West 450 518 36,000  Level Denver Center
08:07PM 44.0644 -104.7797 267° West 453 521 36,000  Level Denver Center
08:08PM 44.0583 -104.9739 268° West 452 520 36,000  Level Denver Center
08:10PM 44.0531 -105.1414 268° West 454 522 36,000  Level Denver Center
08:11PM 44.0461 -105.3356 267° West 453 521 36,000  Level Denver Center
08:12PM 44.0400 -105.5028 267° West 452 520 36,000  Level Denver Center
08:13PM 44.0319 -105.6950 267° West 449 517 36,000  Level Denver Center
08:14PM 44.0008 -105.8539 255° West 445 512 36,000  Level Denver Center
08:15PM 43.9692 -106.0114 254° West 446 513 36,000  Level Denver Center
08:16PM 43.9281 -106.1975 253° West 451 519 36,000  Level Denver Center
08:17PM 43.8953 -106.3550 254° West 447 514 36,000  Level Denver Center
08:18PM 43.8572 -106.5403 254° West 448 516 36,000  Level Denver Center
08:18PM 43.8356 -106.6453 254° West 446 513 36,000  Level Salt Lake Center
08:19PM 43.7961 -106.8281 253° West 445 512 36,000  Level Salt Lake Center
08:20PM 43.7567 -106.9889 251° West 449 517 36,000  Level Salt Lake Center
08:22PM 43.7222 -107.1475 253° West 449 517 36,000  Level Salt Lake Center
08:23PM 43.6836 -107.3306 254° West 446 513 36,000  Level Salt Lake Center
08:24PM 43.6481 -107.4875 253° West 448 516 36,000  Level Salt Lake Center
08:25PM 43.6058 -107.6719 253° West 451 519 36,000  Level Salt Lake Center
08:26PM 43.5706 -107.8294 253° West 450 518 36,000  Level Salt Lake Center
08:27PM 43.5353 -107.9856 253° West 446 513 36,000  Level Salt Lake Center
08:28PM 43.4944 -108.1656 253° West 443 510 36,000  Level Salt Lake Center
08:29PM 43.4578 -108.3208 252° West 443 510 36,000  Level Salt Lake Center
08:30PM 43.4086 -108.4953 249° West 441 507 36,000  Level Salt Lake Center
08:31PM 43.3661 -108.6447 249° West 438 504 36,000  Level Salt Lake Center
08:32PM 43.3225 -108.7936 248° West 439 505 36,000  Level Salt Lake Center
08:33PM 43.2731 -108.9661 249° West 436 502 36,000  Level Salt Lake Center
08:34PM 43.2306 -109.1153 249° West 437 503 36,000  Level Salt Lake Center
08:35PM 43.1806 -109.2883 248° West 437 503 36,000  Level Salt Lake Center
08:36PM 43.1375 -109.4358 248° West 436 502 36,000  Level Salt Lake Center
08:37PM 43.0875 -109.6078 248° West 435 501 36,000  Level Salt Lake Center
08:38PM 43.0436 -109.7539 248° West 434 499 36,000  Level Salt Lake Center
08:39PM 42.9978 -109.9086 248° West 430 495 36,000  Level Salt Lake Center
08:40PM 42.9533 -110.0564 248° West 436 502 36,000  Level Salt Lake Center
08:41PM 42.9022 -110.2269 248° West 436 502 36,000  Level Salt Lake Center
08:42PM 42.8547 -110.3833 248° West 438 504 36,000  Level Salt Lake Center
08:43PM 42.8103 -110.5289 247° West 437 503 36,000  Level Salt Lake Center
08:44PM 42.7606 -110.6906 247° West 437 503 36,000  Level Salt Lake Center
08:45PM 42.7147 -110.8375 247° West 439 505 36,000  Level Salt Lake Center
08:47PM 42.6464 -111.0465 246° West  Level FlightAware Approximate
08:47PM 42.6153 -111.1586 246° West 435 501 36,000  Level Salt Lake Center
08:48PM 42.5675 -111.3078 247° West 434 499 36,000  Level Salt Lake Center
08:49PM 42.5203 -111.4575 247° West 434 499 36,000  Level Salt Lake Center
08:50PM 42.4728 -111.6067 247° West 433 498 36,000  Level Salt Lake Center
08:51PM 42.4258 -111.7569 247° West 435 501 36,000  Level Salt Lake Center
08:52PM 42.3772 -111.9042 246° West 431 496 36,000  Level Salt Lake Center
08:53PM 42.3200 -112.0836 247° West 434 499 36,000  Level Salt Lake Center
08:54PM 42.2711 -112.2317 246° West 434 499 36,000  Level Salt Lake Center
08:55PM 42.2217 -112.3814 246° West 436 502 36,000  Level Salt Lake Center
08:56PM 42.1722 -112.5308 246° West 437 503 36,000  Level Salt Lake Center
08:57PM 42.1208 -112.6806 245° Southwest 442 509 36,000  Level Salt Lake Center
08:58PM 42.0700 -112.8308 246° West 444 511 36,000  Level Salt Lake Center
08:59PM 42.0192 -112.9772 245° Southwest 437 503 36,000  Level Salt Lake Center
09:00PM 41.9689 -113.1261 246° West 438 504 36,000  Level Salt Lake Center
09:01PM 41.9069 -113.3047 245° Southwest 440 506 36,000  Level Salt Lake Center
09:03PM 41.8550 -113.4522 245° Southwest 440 506 36,000  Level Salt Lake Center
09:04PM 41.8044 -113.5986 245° Southwest 436 502 36,000  Level Salt Lake Center
09:05PM 41.7533 -113.7450 245° Southwest 435 501 36,000  Level Salt Lake Center
09:06PM 41.7017 -113.8886 244° Southwest 432 497 36,000  Level Salt Lake Center
09:07PM 41.6492 -114.0325 244° Southwest 432 497 36,000  Level Salt Lake Center
09:08PM 41.5989 -114.1753 245° Southwest 429 494 36,000  Level Salt Lake Center
09:09PM 41.5392 -114.3458 245° Southwest 424 488 36,000  Level Salt Lake Center
09:10PM 41.4883 -114.4867 244° Southwest 423 487 36,000  Level Salt Lake Center
09:11PM 41.4364 -114.6289 244° Southwest 427 491 36,000  Level Salt Lake Center
09:12PM 41.3847 -114.7686 244° Southwest 423 487 36,000  Level Salt Lake Center
09:13PM 41.3364 -114.9044 245° Southwest 425 489 36,000  Level Salt Lake Center
09:14PM 41.2775 -115.0611 243° Southwest 424 488 36,000  Level Salt Lake Center
09:15PM 41.2281 -115.1961 244° Southwest 424 488 36,000  Level Salt Lake Center
09:16PM 41.1678 -115.3553 243° Southwest 430 495 36,000  Level Salt Lake Center
09:17PM 41.1181 -115.4903 244° Southwest 427 491 36,000  Level Salt Lake Center
09:18PM 41.0675 -115.6242 243° Southwest 425 489 36,000  Level Salt Lake Center
09:19PM 41.0089 -115.7794 243° Southwest 422 486 36,000  Level Salt Lake Center
09:20PM 40.9592 -115.9139 244° Southwest 423 487 36,000  Level Salt Lake Center
09:21PM 40.9006 -116.0667 243° Southwest 419 482 36,000  Level Salt Lake Center
09:22PM 40.8506 -116.1972 243° Southwest 417 480 36,000  Level Salt Lake Center
09:23PM 40.7992 -116.3308 243° Southwest 424 488 36,000  Level Salt Lake Center
09:24PM 40.7397 -116.4836 243° Southwest 420 483 36,000  Level Salt Lake Center
09:25PM 40.6892 -116.6144 243° Southwest 419 482 36,000  Level Salt Lake Center
09:26PM 40.6303 -116.7664 243° Southwest 418 481 36,000  Level Salt Lake Center
09:27PM 40.5800 -116.8950 243° Southwest 418 481 36,000  Level Salt Lake Center
09:28PM 40.5369 -117.0472 250° West 403 464 36,000  Level Salt Lake Center
09:29PM 40.5025 -117.1797 251° West 403 464 36,000  Level Salt Lake Center
09:30PM 40.4672 -117.3103 250° West 400 460 36,000  Level Salt Lake Center
09:31PM 40.4286 -117.4581 251° West 388 447 36,000  Level Salt Lake Center
09:32PM 40.3958 -117.5831 251° West 381 438 36,000  Level Salt Lake Center
09:33PM 40.3556 -117.7283 250° West 380 437 36,000  Level Salt Lake Center
09:34PM 40.3222 -117.8564 251° West 386 444 36,000  Level Salt Lake Center
09:35PM 40.2944 -117.9600 251° West 381 438 36,000  Level Oakland Center
09:36PM 40.2617 -118.0797 250° West 376 433 36,000 -360 Level Oakland Center
09:37PM 40.2272 -118.2097 251° West 378 435 35,300 -1,620 Descending Oakland Center
09:38PM 40.1836 -118.3683 250° West 387 445 32,800 -2,280 Descending Oakland Center
09:39PM 40.1464 -118.5008 250° West 390 449 30,700 -1,920 Descending Oakland Center
09:40PM 40.0897 -118.6253 239° Southwest 407 468 29,000 -2,100 Descending Oakland Center
09:41PM 40.0011 -118.7322 223° Southwest 429 494 26,500 -2,400 Descending Oakland Center
09:42PM 39.9153 -118.8372 223° Southwest 425 489 24,100 -2,460 Descending Oakland Center
09:43PM 39.8306 -118.9400 223° Southwest 420 483 21,600 -2,460 Descending Oakland Center
09:44PM 39.7472 -119.0400 223° Southwest 412 474 19,100 -2,340 Descending Oakland Center
09:45PM 39.6658 -119.1394 223° Southwest 407 468 16,900 -2,280 Descending Oakland Center
09:46PM 39.5703 -119.2542 223° Southwest 395 455 14,500 -1,860 Descending Oakland Center
09:47PM 39.4967 -119.3433 223° Southwest 373 429 13,200 -1,140 Descending Oakland Center
09:48PM 39.4317 -119.4211 223° Southwest 330 380 12,200 -1,080 Descending Oakland Center
09:49PM 39.3706 -119.4953 223° Southwest 311 358 11,000 -1,080 Descending Oakland Center
09:50PM 39.3100 -119.5647 222° Southwest 300 345 10,000 -780 Descending Oakland Center
09:51PM 39.2800 -119.6425 244° Southwest 276 318 9,500 -480 Descending Oakland Center
09:52PM 39.2869 -119.7178 277° West 239 275 9,100 -420 Descending Oakland Center